createdAt,value
2019-04-10T04:00:42.571Z,30.90
2019-04-10T04:01:43.037Z,23.70
2019-04-10T04:02:42.361Z,26.40
2019-04-10T04:03:42.647Z,26.30
2019-04-10T04:04:42.332Z,26.90
2019-04-10T04:05:42.597Z,25.40
2019-04-10T04:06:42.325Z,25.80
2019-04-10T04:07:49.370Z,26.80
2019-04-10T04:08:42.299Z,26.40
2019-04-10T04:09:42.278Z,24.70
2019-04-10T04:10:42.646Z,24.70
2019-04-10T04:11:42.259Z,27.60
2019-04-10T04:12:42.561Z,24.80
2019-04-10T04:13:42.249Z,26.00
2019-04-10T04:14:42.231Z,24.80
2019-04-10T04:15:42.220Z,23.00
2019-04-10T04:16:42.207Z,28.30
2019-04-10T04:17:42.297Z,24.60
2019-04-10T04:18:42.208Z,26.10
2019-04-10T04:19:42.195Z,24.00
2019-04-10T04:20:43.242Z,24.80
2019-04-10T04:21:42.153Z,23.60
2019-04-10T04:22:43.117Z,25.00
2019-04-10T04:23:42.651Z,24.90
2019-04-10T04:24:42.128Z,24.20
2019-04-10T04:25:42.796Z,23.20
2019-04-10T04:26:42.100Z,24.10
2019-04-10T04:27:42.108Z,26.50
2019-04-10T04:28:42.082Z,22.80
2019-04-10T04:29:42.085Z,24.40
2019-04-10T04:30:42.067Z,23.60
2019-04-10T04:31:42.066Z,25.70
2019-04-10T04:32:42.166Z,25.00
2019-04-10T04:33:42.024Z,24.10
2019-04-10T04:34:42.029Z,24.30
2019-04-10T04:35:42.859Z,23.10
2019-04-10T04:36:43.114Z,23.30
2019-04-10T04:37:42.271Z,22.40
2019-04-10T04:38:43.141Z,23.70
2019-04-10T04:39:41.962Z,21.90
2019-04-10T04:40:42.098Z,25.50
2019-04-10T04:41:42.247Z,23.80
2019-04-10T04:42:42.726Z,25.30
2019-04-10T04:43:43.381Z,24.40
2019-04-10T04:44:41.915Z,23.90
2019-04-10T04:45:42.260Z,22.90
2019-04-10T04:46:42.909Z,21.10
2019-04-10T04:47:41.895Z,23.50
2019-04-10T04:48:41.876Z,23.50
2019-04-10T04:49:42.101Z,22.90
2019-04-10T04:50:41.849Z,24.20
2019-04-10T04:51:41.838Z,22.50
2019-04-10T04:52:41.840Z,24.10
2019-04-10T04:53:42.045Z,21.50
2019-04-10T04:54:41.815Z,23.80
2019-04-10T04:55:42.682Z,25.10
2019-04-10T04:56:42.249Z,23.00
2019-04-10T04:57:42.324Z,22.70
2019-04-10T04:58:41.786Z,24.30
2019-04-10T04:59:42.741Z,24.00
2019-04-10T05:00:41.827Z,23.90
2019-04-10T05:01:42.516Z,23.20
2019-04-10T05:02:42.680Z,25.60
2019-04-10T05:03:42.085Z,24.40
2019-04-10T05:04:41.758Z,22.20
2019-04-10T05:05:41.696Z,23.10
2019-04-10T05:06:41.831Z,21.80
2019-04-10T05:07:41.809Z,22.50
2019-04-10T05:08:42.037Z,22.40
2019-04-10T05:09:42.242Z,22.70
2019-04-10T05:10:41.877Z,22.10
2019-04-10T05:11:42.605Z,23.40
2019-04-10T05:12:43.245Z,25.80
2019-04-10T05:13:42.419Z,21.70
2019-04-10T05:14:41.902Z,23.50
2019-04-10T05:15:41.586Z,20.70
2019-04-10T05:16:41.707Z,21.30
2019-04-10T05:17:41.637Z,20.60
2019-04-10T05:18:41.555Z,22.60
2019-04-10T05:19:42.580Z,24.10
2019-04-10T05:20:47.251Z,23.30
2019-04-10T05:21:43.589Z,23.70
2019-04-10T05:22:41.696Z,23.20
2019-04-10T05:23:41.501Z,25.10
2019-04-10T05:24:42.429Z,21.50
2019-04-10T05:25:41.551Z,25.10
2019-04-10T05:26:41.481Z,24.60
2019-04-10T05:27:41.464Z,22.50
2019-04-10T05:28:41.474Z,22.90
2019-04-10T05:29:41.443Z,21.70
2019-04-10T05:30:41.433Z,22.30
2019-04-10T05:31:42.594Z,25.40
2019-04-10T05:32:41.800Z,25.10
2019-04-10T05:33:41.399Z,21.30
2019-04-10T05:34:43.234Z,21.70
2019-04-10T05:35:41.879Z,24.70
2019-04-10T05:36:42.019Z,22.80
2019-04-10T05:37:41.363Z,23.40
2019-04-10T05:38:41.878Z,24.50
2019-04-10T05:39:47.778Z,22.20
2019-04-10T05:40:42.334Z,21.00
2019-04-10T05:41:41.919Z,22.10
2019-04-10T05:42:41.603Z,21.10
2019-04-10T05:43:41.288Z,21.50
2019-04-10T05:44:42.263Z,22.40
2019-04-10T05:45:42.235Z,23.40
2019-04-10T05:46:41.258Z,22.30
2019-04-10T05:47:42.290Z,21.20
2019-04-10T05:48:41.921Z,21.40
2019-04-10T05:49:41.999Z,21.90
2019-04-10T05:50:52.555Z,24.60
2019-04-10T05:51:42.199Z,21.10
2019-04-10T05:52:41.192Z,18.90
2019-04-10T05:53:41.213Z,22.60
2019-04-10T05:54:41.662Z,20.00
2019-04-10T05:55:41.159Z,21.70
2019-04-10T05:56:41.157Z,20.90
2019-04-10T05:57:41.138Z,20.00
2019-04-10T05:58:41.126Z,20.50
2019-04-10T05:59:41.120Z,18.80
2019-04-10T06:00:41.128Z,20.50
2019-04-10T06:01:42.524Z,20.20
2019-04-10T06:02:41.871Z,18.60
2019-04-10T06:03:41.074Z,19.50
2019-04-10T06:04:41.266Z,18.90
2019-04-10T06:05:41.061Z,20.10
2019-04-10T06:06:41.057Z,18.50
2019-04-10T06:07:41.328Z,18.80
2019-04-10T06:08:41.484Z,20.00
2019-04-10T06:09:51.913Z,20.00
2019-04-10T06:10:42.005Z,17.90
2019-04-10T06:11:42.953Z,21.30
2019-04-10T06:12:40.977Z,19.20
2019-04-10T06:13:40.970Z,21.30
2019-04-10T06:14:41.997Z,22.00
2019-04-10T06:15:41.299Z,19.10
2019-04-10T06:16:40.939Z,17.90
2019-04-10T06:17:40.930Z,18.20
2019-04-10T06:18:40.913Z,20.20
2019-04-10T06:19:40.911Z,20.80
2019-04-10T06:20:41.763Z,20.40
2019-04-10T06:21:40.902Z,18.60
2019-04-10T06:22:40.999Z,18.00
2019-04-10T06:23:41.402Z,18.80
2019-04-10T06:24:40.861Z,19.70
2019-04-10T06:25:41.951Z,18.00
2019-04-10T06:26:40.840Z,18.10
2019-04-10T06:27:40.926Z,18.20
2019-04-10T06:28:40.812Z,17.70
2019-04-10T06:29:41.293Z,19.20
2019-04-10T06:30:41.895Z,21.30
2019-04-10T06:31:41.025Z,20.00
2019-04-10T06:32:40.773Z,18.50
2019-04-10T06:33:40.755Z,17.80
2019-04-10T06:34:40.934Z,17.40
2019-04-10T06:35:40.730Z,19.80
2019-04-10T06:36:41.711Z,19.70
2019-04-10T06:37:40.720Z,17.40
2019-04-10T06:38:41.214Z,19.20
2019-04-10T06:39:43.393Z,22.20
2019-04-10T06:40:40.688Z,20.70
2019-04-10T06:41:41.104Z,17.40
2019-04-10T06:42:48.589Z,18.10
2019-04-10T06:43:41.683Z,18.60
2019-04-10T06:44:41.768Z,18.60
2019-04-10T06:45:40.624Z,18.40
2019-04-10T06:46:41.704Z,18.00
2019-04-10T06:47:40.605Z,17.30
2019-04-10T06:48:40.589Z,17.80
2019-04-10T06:49:40.715Z,20.30
2019-04-10T06:50:41.237Z,19.70
2019-04-10T06:51:41.060Z,18.70
2019-04-10T06:52:41.007Z,21.10
2019-04-10T06:53:41.409Z,18.60
2019-04-10T06:54:40.738Z,19.90
2019-04-10T06:55:40.608Z,19.30
2019-04-10T06:56:41.062Z,19.30
2019-04-10T06:57:50.922Z,21.60
2019-04-10T06:58:42.383Z,18.50
2019-04-10T06:59:40.505Z,18.80
2019-04-10T07:00:41.030Z,21.50
2019-04-10T07:01:47.811Z,21.50
2019-04-10T07:02:42.232Z,19.60
2019-04-10T07:03:52.708Z,21.80
2019-04-10T07:04:48.468Z,21.00
2019-04-10T07:05:56.375Z,23.20
2019-04-10T07:06:54.909Z,21.90
2019-04-10T07:07:50.900Z,21.00
2019-04-10T07:08:46.320Z,20.30
2019-04-10T07:09:42.130Z,20.70
2019-04-10T07:10:49.908Z,20.60
2019-04-10T07:11:41.343Z,22.60
2019-04-10T07:12:41.623Z,19.20
2019-04-10T07:13:41.606Z,20.90
2019-04-10T07:14:43.880Z,19.10
2019-04-10T07:15:43.966Z,20.50
2019-04-10T07:16:40.303Z,20.70
2019-04-10T07:17:41.737Z,19.90
2019-04-10T07:18:41.186Z,20.50
2019-04-10T07:19:42.871Z,21.40
2019-04-10T07:20:40.249Z,19.80
2019-04-10T07:21:40.590Z,20.70
2019-04-10T07:22:46.466Z,24.50
2019-04-10T07:23:41.212Z,22.40
2019-04-10T07:24:42.503Z,21.30
2019-04-10T07:25:44.484Z,20.70
2019-04-10T07:26:44.575Z,22.30
2019-04-10T07:27:41.846Z,21.00
2019-04-10T07:28:44.005Z,21.60
2019-04-10T07:29:41.152Z,20.70
2019-04-10T07:30:40.138Z,21.70
2019-04-10T07:31:40.142Z,20.90
2019-04-10T07:32:43.296Z,22.50
2019-04-10T07:33:41.126Z,21.70
2019-04-10T07:34:40.353Z,21.20
2019-04-10T07:35:40.300Z,21.70
2019-04-10T07:36:42.095Z,20.40
2019-04-10T07:37:40.372Z,21.30
2019-04-10T07:38:41.258Z,22.10
2019-04-10T07:39:40.197Z,22.10
2019-04-10T07:40:40.705Z,21.70
2019-04-10T07:41:40.249Z,20.10
2019-04-10T07:42:41.903Z,21.30
2019-04-10T07:43:40.619Z,20.50
2019-04-10T07:44:40.198Z,20.10
2019-04-10T07:45:40.026Z,21.50
2019-04-10T07:46:40.987Z,21.30
2019-04-10T07:47:39.961Z,20.40
2019-04-10T07:48:40.064Z,19.90
2019-04-10T07:49:39.958Z,22.10
2019-04-10T07:50:41.118Z,22.10
2019-04-10T07:51:39.932Z,22.90
2019-04-10T07:52:39.922Z,21.10
2019-04-10T07:53:39.895Z,21.00
2019-04-10T07:54:42.860Z,22.10
2019-04-10T07:55:39.887Z,20.70
2019-04-10T07:56:39.864Z,21.80
2019-04-10T07:57:40.596Z,22.30
2019-04-10T07:58:40.028Z,21.50
2019-04-10T07:59:40.887Z,22.20
2019-04-10T08:00:40.732Z,21.60
2019-04-10T08:01:40.611Z,19.90
2019-04-10T08:02:40.549Z,20.80
2019-04-10T08:03:39.806Z,21.50
2019-04-10T08:04:39.777Z,21.70
2019-04-10T08:05:39.768Z,23.30
2019-04-10T08:06:39.756Z,24.10
2019-04-10T08:07:40.585Z,22.90
2019-04-10T08:08:39.775Z,22.60
2019-04-10T08:09:39.995Z,21.60
2019-04-10T08:10:42.350Z,22.20
2019-04-10T08:11:40.179Z,23.70
2019-04-10T08:12:47.611Z,24.60
2019-04-10T08:13:40.833Z,20.10
2019-04-10T08:14:39.960Z,21.20
2019-04-10T08:15:39.655Z,21.00
2019-04-10T08:16:39.655Z,19.50
2019-04-10T08:17:39.637Z,22.20
2019-04-10T08:18:39.648Z,21.40
2019-04-10T08:19:39.640Z,19.40
2019-04-10T08:20:40.299Z,21.20
2019-04-10T08:21:40.279Z,22.20
2019-04-10T08:22:39.578Z,23.00
2019-04-10T08:23:39.573Z,20.50
2019-04-10T08:24:40.537Z,22.50
2019-04-10T08:25:39.563Z,21.00
2019-04-10T08:26:39.552Z,19.60
2019-04-10T08:27:39.525Z,20.80
2019-04-10T08:28:39.513Z,19.90
2019-04-10T08:29:40.788Z,24.10
2019-04-10T08:30:39.832Z,19.80
2019-04-10T08:31:39.697Z,21.00
2019-04-10T08:32:50.904Z,23.20
2019-04-10T08:33:40.464Z,21.40
2019-04-10T08:34:40.053Z,21.00
2019-04-10T08:35:39.891Z,18.90
2019-04-10T08:36:39.575Z,21.30
2019-04-10T08:37:39.435Z,23.00
2019-04-10T08:38:40.101Z,20.80
2019-04-10T08:39:43.006Z,20.70
2019-04-10T08:40:40.503Z,21.00
2019-04-10T08:41:39.523Z,20.60
2019-04-10T08:42:40.355Z,22.40
2019-04-10T08:43:39.667Z,20.20
2019-04-10T08:44:40.324Z,23.80
2019-04-10T08:45:46.325Z,20.90
2019-04-10T08:46:40.346Z,23.50
2019-04-10T08:47:39.755Z,21.40
2019-04-10T08:48:39.299Z,21.00
2019-04-10T08:49:39.293Z,22.30
2019-04-10T08:50:39.295Z,21.30
2019-04-10T08:51:39.501Z,21.70
2019-04-10T08:52:39.266Z,21.10
2019-04-10T08:53:39.370Z,21.70
2019-04-10T08:54:40.298Z,20.50
2019-04-10T08:55:40.031Z,19.90
2019-04-10T08:56:39.260Z,20.40
2019-04-10T08:57:39.212Z,21.90
2019-04-10T08:58:39.221Z,20.70
2019-04-10T08:59:40.164Z,22.60
2019-04-10T09:00:39.170Z,20.20
2019-04-10T09:01:41.762Z,21.50
2019-04-10T09:02:40.162Z,24.00
2019-04-10T09:03:41.088Z,22.30
2019-04-10T09:04:39.251Z,21.20
2019-04-10T09:05:39.117Z,20.40
2019-04-10T09:06:39.798Z,20.30
2019-04-10T09:07:40.064Z,19.70
2019-04-10T09:08:39.217Z,22.20
2019-04-10T09:09:39.448Z,22.90
2019-04-10T09:10:39.077Z,22.40
2019-04-10T09:11:39.063Z,22.60
2019-04-10T09:12:39.041Z,21.70
2019-04-10T09:13:39.070Z,23.90
2019-04-10T09:14:39.150Z,21.80
2019-04-10T09:15:40.192Z,22.70
2019-04-10T09:16:39.018Z,21.70
2019-04-10T09:17:39.667Z,22.90
2019-04-10T09:18:39.071Z,21.30
2019-04-10T09:19:38.966Z,19.70
2019-04-10T09:20:38.958Z,20.90
2019-04-10T09:21:38.949Z,22.90
2019-04-10T09:23:04.251Z,22.70
2019-04-10T09:23:47.271Z,19.80
2019-04-10T09:24:39.916Z,20.70
2019-04-10T09:25:39.466Z,20.70
2019-04-10T09:26:38.909Z,21.50
2019-04-10T09:27:39.908Z,22.80
2019-04-10T09:28:38.883Z,20.60
2019-04-10T09:29:38.863Z,19.50
2019-04-10T09:30:38.854Z,22.20
2019-04-10T09:31:39.934Z,20.60
2019-04-10T09:32:39.072Z,22.00
2019-04-10T09:33:39.055Z,21.50
2019-04-10T09:34:38.806Z,20.70
2019-04-10T09:35:38.817Z,21.50
2019-04-10T09:36:39.626Z,20.10
2019-04-10T09:37:39.826Z,20.30
2019-04-10T09:38:39.052Z,22.90
2019-04-10T09:39:39.173Z,18.30
2019-04-10T09:40:38.755Z,21.60
2019-04-10T09:41:38.774Z,21.60
2019-04-10T09:42:39.580Z,19.00
2019-04-10T09:43:38.720Z,18.90
2019-04-10T09:44:38.697Z,19.90
2019-04-10T09:45:39.298Z,19.00
2019-04-10T09:46:38.757Z,18.60
2019-04-10T09:47:39.586Z,19.70
2019-04-10T09:48:38.666Z,19.40
2019-04-10T09:49:43.146Z,21.00
2019-04-10T09:50:39.688Z,18.60
2019-04-10T09:51:38.641Z,18.60
2019-04-10T09:52:39.684Z,19.40
2019-04-10T09:53:39.159Z,17.90
2019-04-10T09:54:38.598Z,18.30
2019-04-10T09:55:38.599Z,19.50
2019-04-10T09:56:38.635Z,20.60
2019-04-10T09:57:38.820Z,20.90
2019-04-10T09:58:38.548Z,19.50
2019-04-10T09:59:40.095Z,18.90
2019-04-10T10:00:38.549Z,18.20
2019-04-10T10:01:38.524Z,18.40
2019-04-10T10:02:38.516Z,19.90
2019-04-10T10:03:38.494Z,19.60
2019-04-10T10:04:39.666Z,17.50
2019-04-10T10:05:39.119Z,17.40
2019-04-10T10:06:39.505Z,18.90
2019-04-10T10:07:39.063Z,19.70
2019-04-10T10:08:39.398Z,18.10
2019-04-10T10:09:38.694Z,18.20
2019-04-10T10:10:39.745Z,18.10
2019-04-10T10:11:38.657Z,19.00
2019-04-10T10:12:38.746Z,19.40
2019-04-10T10:13:39.356Z,18.80
2019-04-10T10:14:38.384Z,18.80
2019-04-10T10:15:38.387Z,19.00
2019-04-10T10:16:38.536Z,20.80
2019-04-10T10:17:39.220Z,19.60
2019-04-10T10:18:38.467Z,19.60
2019-04-10T10:19:39.351Z,19.40
2019-04-10T10:20:39.635Z,18.50
2019-04-10T10:21:38.811Z,18.50
2019-04-10T10:22:39.038Z,19.30
2019-04-10T10:23:38.457Z,23.20
2019-04-10T10:24:38.553Z,20.20
2019-04-10T10:25:39.366Z,19.40
2019-04-10T10:26:38.295Z,20.90
2019-04-10T10:27:38.547Z,20.90
2019-04-10T10:28:38.238Z,19.40
2019-04-10T10:29:38.250Z,19.20
2019-04-10T10:30:38.206Z,20.40
2019-04-10T10:31:38.218Z,19.10
2019-04-10T10:32:39.177Z,20.70
2019-04-10T10:33:38.177Z,20.00
2019-04-10T10:34:38.750Z,20.00
2019-04-10T10:35:38.973Z,19.90
2019-04-10T10:36:41.966Z,21.10
2019-04-10T10:37:39.128Z,19.70
2019-04-10T10:38:39.001Z,20.10
2019-04-10T10:39:38.987Z,20.60
2019-04-10T10:40:38.111Z,20.10
2019-04-10T10:41:38.363Z,19.60
2019-04-10T10:42:39.621Z,21.90
2019-04-10T10:43:38.068Z,18.50
2019-04-10T10:44:38.374Z,19.70
2019-04-10T10:45:38.717Z,19.20
2019-04-10T10:46:38.050Z,19.60
2019-04-10T10:47:38.099Z,21.50
2019-04-10T10:48:38.047Z,19.60
2019-04-10T10:49:38.021Z,21.10
2019-04-10T10:50:38.010Z,20.40
2019-04-10T10:51:39.143Z,21.10
2019-04-10T10:52:37.982Z,21.00
2019-04-10T10:53:38.595Z,21.70
2019-04-10T10:54:37.972Z,19.80
2019-04-10T10:55:38.037Z,23.10
2019-04-10T10:56:38.241Z,22.60
2019-04-10T10:57:37.971Z,22.10
2019-04-10T10:58:37.910Z,22.80
2019-04-10T10:59:37.893Z,20.10
2019-04-10T11:00:38.941Z,20.90
2019-04-10T11:01:38.074Z,21.90
2019-04-10T11:02:38.053Z,19.40
2019-04-10T11:03:38.252Z,22.50
2019-04-10T11:04:37.937Z,23.10
2019-04-10T11:05:37.838Z,20.20
2019-04-10T11:06:50.603Z,21.70
2019-04-10T11:07:40.486Z,24.10
2019-04-10T11:08:37.814Z,23.20
2019-04-10T11:09:37.786Z,21.30
2019-04-10T11:10:38.934Z,22.40
2019-04-10T11:11:38.666Z,22.90
2019-04-10T11:12:38.364Z,23.50
2019-04-10T11:13:39.146Z,21.60
2019-04-10T11:14:37.735Z,23.90
2019-04-10T11:15:41.349Z,20.60
2019-04-10T11:16:39.091Z,23.30
2019-04-10T11:17:38.537Z,22.20
2019-04-10T11:18:37.995Z,20.60
2019-04-10T11:19:37.679Z,20.90
2019-04-10T11:20:37.668Z,24.30
2019-04-10T11:21:38.973Z,21.70
2019-04-10T11:22:37.765Z,20.80
2019-04-10T11:23:37.672Z,22.40
2019-04-10T11:24:38.319Z,19.90
2019-04-10T11:25:37.864Z,19.90
2019-04-10T11:26:37.721Z,22.90
2019-04-10T11:27:39.189Z,19.90
2019-04-10T11:28:37.661Z,18.50
2019-04-10T11:29:37.991Z,20.40
2019-04-10T11:30:37.585Z,22.50
2019-04-10T11:31:38.270Z,20.30
2019-04-10T11:32:46.283Z,20.80
2019-04-10T11:33:39.710Z,20.10
2019-04-10T11:34:38.196Z,20.90
2019-04-10T11:35:37.507Z,21.70
2019-04-10T11:36:37.510Z,21.40
2019-04-10T11:38:39.800Z,20.50
2019-04-10T11:39:42.772Z,20.80
2019-04-10T11:40:38.934Z,20.90
2019-04-10T11:41:45.871Z,19.80
2019-04-10T11:42:46.796Z,19.30
2019-04-10T11:43:38.053Z,21.00
2019-04-10T11:44:46.795Z,20.00
2019-04-10T11:46:46.153Z,22.30
2019-04-10T11:47:37.390Z,19.80
2019-04-10T11:48:39.229Z,19.60
2019-04-10T11:49:42.784Z,22.90
2019-04-10T11:50:38.654Z,20.70
2019-04-10T11:51:38.885Z,23.50
2019-04-10T11:52:44.622Z,20.10
2019-04-10T11:53:42.339Z,22.70
2019-04-10T11:54:41.335Z,18.80
2019-04-10T11:55:44.955Z,21.80
2019-04-10T11:56:38.500Z,21.80
2019-04-10T11:57:37.380Z,20.10
2019-04-10T11:58:47.455Z,20.70
2019-04-10T11:59:39.010Z,21.40
2019-04-10T12:00:46.676Z,20.20
2019-04-10T12:01:39.211Z,21.10
2019-04-10T12:02:37.219Z,20.10
2019-04-10T12:03:41.544Z,19.90
2019-04-10T12:04:48.077Z,22.50
2019-04-10T12:05:40.106Z,23.10
2019-04-10T12:06:38.222Z,20.90
2019-04-10T12:09:04.340Z,20.20
2019-04-10T12:11:39.167Z,21.70
2019-04-10T12:12:37.593Z,21.20
2019-04-10T12:13:37.098Z,22.50
2019-04-10T12:14:37.379Z,22.60
2019-04-10T12:15:37.107Z,23.30
2019-04-10T12:16:37.069Z,26.10
2019-04-10T12:17:38.068Z,21.30
2019-04-10T12:18:37.048Z,21.70
2019-04-10T12:19:37.031Z,21.40
2019-04-10T12:20:37.481Z,21.90
2019-04-10T12:21:37.923Z,22.10
2019-04-10T12:22:37.961Z,23.80
2019-04-10T12:23:36.988Z,22.30
2019-04-10T12:24:36.978Z,23.30
2019-04-10T12:25:36.966Z,21.10
2019-04-10T12:26:38.048Z,21.70
2019-04-10T12:27:36.997Z,21.30
2019-04-10T12:28:38.089Z,21.70
2019-04-10T12:29:36.927Z,21.40
2019-04-10T12:30:37.427Z,22.50
2019-04-10T12:31:36.911Z,20.80
2019-04-10T12:32:36.892Z,21.90
2019-04-10T12:33:37.900Z,22.10
2019-04-10T12:34:36.907Z,22.50
2019-04-10T12:35:38.067Z,20.00
2019-04-10T12:36:36.870Z,23.10
2019-04-10T12:37:37.159Z,21.00
2019-04-10T12:38:36.825Z,20.20
2019-04-10T12:39:36.820Z,21.20
2019-04-10T12:40:38.958Z,21.60
2019-04-10T12:41:36.807Z,21.60
2019-04-10T12:42:36.789Z,20.90
2019-04-10T12:43:36.816Z,22.30
2019-04-10T12:44:36.765Z,19.30
2019-04-10T12:45:36.750Z,22.90
2019-04-10T12:46:37.344Z,21.60
2019-04-10T12:47:37.721Z,19.90
2019-04-10T12:48:36.934Z,21.80
2019-04-10T12:49:36.711Z,19.80
2019-04-10T12:50:36.986Z,19.60
2019-04-10T12:51:36.696Z,22.60
2019-04-10T12:52:36.732Z,21.10
2019-04-10T12:53:36.669Z,20.10
2019-04-10T12:54:37.856Z,21.50
2019-04-10T12:55:36.774Z,21.40
2019-04-10T12:56:36.646Z,22.30
2019-04-10T12:57:37.076Z,19.90
2019-04-10T12:58:37.115Z,21.50
2019-04-10T12:59:36.613Z,22.40
2019-04-10T13:00:36.597Z,20.60
2019-04-10T13:01:36.655Z,21.80
2019-04-10T13:02:36.602Z,21.00
2019-04-10T13:03:36.557Z,21.00
2019-04-10T13:04:36.587Z,21.00
2019-04-10T13:05:37.500Z,20.90
2019-04-10T13:06:36.530Z,22.00
2019-04-10T13:07:36.518Z,20.30
2019-04-10T13:08:54.664Z,20.10
2019-04-10T13:09:37.949Z,21.10
2019-04-10T13:10:36.496Z,21.50
2019-04-10T13:11:36.476Z,19.80
2019-04-10T13:12:37.585Z,22.30
2019-04-10T13:13:36.452Z,23.50
2019-04-10T13:14:36.866Z,19.80
2019-04-10T13:15:37.216Z,21.00
2019-04-10T13:16:36.416Z,20.40
2019-04-10T13:17:36.405Z,18.30
2019-04-10T13:18:36.459Z,19.40
2019-04-10T13:19:37.425Z,20.50
2019-04-10T13:20:36.384Z,21.00
2019-04-10T13:21:36.836Z,22.00
2019-04-10T13:22:36.358Z,20.00
2019-04-10T13:23:36.996Z,19.80
2019-04-10T13:24:37.485Z,18.30
2019-04-10T13:25:36.653Z,21.40
2019-04-10T13:26:36.327Z,21.10
2019-04-10T13:27:36.910Z,18.00
2019-04-10T13:28:36.287Z,17.10
2019-04-10T13:29:36.417Z,18.70
2019-04-10T13:30:46.867Z,18.90
2019-04-10T13:31:37.373Z,17.80
2019-04-10T13:32:36.248Z,19.00
2019-04-10T13:33:36.366Z,20.90
2019-04-10T13:34:37.385Z,18.90
2019-04-10T13:35:36.211Z,18.30
2019-04-10T13:36:36.208Z,20.70
2019-04-10T13:37:36.188Z,20.80
2019-04-10T13:38:36.948Z,19.30
2019-04-10T13:39:37.133Z,20.40
2019-04-10T13:40:36.164Z,20.20
2019-04-10T13:41:36.678Z,21.40
2019-04-10T13:42:37.182Z,20.20
2019-04-10T13:43:36.130Z,20.20
2019-04-10T13:44:36.119Z,18.80
2019-04-10T13:45:36.106Z,20.40
2019-04-10T13:46:37.178Z,19.00
2019-04-10T13:47:36.095Z,21.80
2019-04-10T13:48:36.075Z,21.20
2019-04-10T13:49:36.061Z,19.10
2019-04-10T13:50:36.936Z,22.00
2019-04-10T13:51:37.275Z,17.90
2019-04-10T13:52:36.346Z,18.70
2019-04-10T13:53:36.019Z,19.10
2019-04-10T13:54:36.842Z,21.10
2019-04-10T13:55:36.739Z,21.90
2019-04-10T13:56:37.131Z,19.30
2019-04-10T13:57:36.938Z,19.90
2019-04-10T13:58:35.982Z,19.00
2019-04-10T13:59:35.953Z,18.70
2019-04-10T14:00:38.421Z,19.10
2019-04-10T14:01:35.930Z,20.30
2019-04-10T14:02:35.919Z,20.00
2019-04-10T14:03:36.541Z,20.80
2019-04-10T14:04:35.904Z,21.40
2019-04-10T14:05:36.935Z,20.20
2019-04-10T14:06:36.027Z,20.70
2019-04-10T14:07:36.112Z,18.70
2019-04-10T14:08:57.106Z,20.10
2019-04-10T14:09:44.048Z,20.40
2019-04-10T14:10:39.399Z,21.10
2019-04-10T14:11:35.863Z,22.50
2019-04-10T14:12:35.814Z,20.90
2019-04-10T14:13:35.943Z,21.20
2019-04-10T14:14:36.973Z,20.80
2019-04-10T14:15:35.920Z,18.90
2019-04-10T14:16:35.772Z,22.00
2019-04-10T14:17:35.783Z,20.30
2019-04-10T14:18:37.020Z,19.50
2019-04-10T14:19:35.747Z,18.70
2019-04-10T14:20:35.730Z,18.70
2019-04-10T14:21:35.712Z,18.20
2019-04-10T14:22:35.745Z,19.50
2019-04-10T14:23:35.696Z,21.90
2019-04-10T14:24:42.775Z,21.90
2019-04-10T14:25:36.690Z,20.70
2019-04-10T14:26:45.869Z,20.40
2019-04-10T14:27:36.649Z,22.00
2019-04-10T14:28:35.640Z,25.20
2019-04-10T14:29:35.659Z,22.40
2019-04-10T14:30:35.732Z,18.80
2019-04-10T14:31:36.277Z,20.90
2019-04-10T14:32:35.664Z,20.00
2019-04-10T14:33:35.807Z,20.60
2019-04-10T14:34:36.624Z,21.10
2019-04-10T14:35:35.650Z,22.70
2019-04-10T14:36:36.004Z,21.40
2019-04-10T14:37:35.741Z,21.60
2019-04-10T14:38:35.543Z,22.30
2019-04-10T14:39:35.944Z,20.90
2019-04-10T14:40:35.969Z,22.40
2019-04-10T14:41:36.017Z,23.90
2019-04-10T14:42:35.491Z,21.70
2019-04-10T14:43:35.483Z,21.60
2019-04-10T14:44:35.545Z,19.80
2019-04-10T14:45:35.537Z,21.40
2019-04-10T14:46:36.044Z,21.70
2019-04-10T14:47:35.936Z,20.90
2019-04-10T14:48:36.177Z,22.90
2019-04-10T14:49:35.498Z,19.80
2019-04-10T14:50:35.438Z,19.50
2019-04-10T14:51:36.593Z,21.00
2019-04-10T14:52:35.414Z,20.50
2019-04-10T14:53:35.370Z,20.80
2019-04-10T14:54:35.735Z,19.60
2019-04-10T14:55:35.577Z,19.50
2019-04-10T14:56:35.340Z,21.00
2019-04-10T14:57:35.329Z,21.60
2019-04-10T14:58:35.463Z,19.80
2019-04-10T14:59:35.910Z,20.20
2019-04-10T15:00:35.297Z,19.80
2019-04-10T15:01:35.902Z,21.40
2019-04-10T15:02:35.290Z,20.90
2019-04-10T15:03:36.169Z,19.20
2019-04-10T15:04:35.353Z,21.20
2019-04-10T15:05:44.687Z,20.00
2019-04-10T15:06:36.236Z,19.80
2019-04-10T15:07:35.271Z,18.40
2019-04-10T15:08:35.639Z,17.90
2019-04-10T15:09:35.230Z,19.20
2019-04-10T15:10:35.192Z,18.50
2019-04-10T15:11:35.177Z,19.30
2019-04-10T15:12:35.169Z,18.80
2019-04-10T15:13:36.132Z,19.00
2019-04-10T15:14:35.422Z,19.80
2019-04-10T15:15:35.171Z,19.80
2019-04-10T15:16:35.130Z,19.40
2019-04-10T15:17:35.186Z,19.20
2019-04-10T15:18:35.125Z,20.30
2019-04-10T15:19:35.100Z,20.30
2019-04-10T15:20:35.606Z,22.70
2019-04-10T15:21:35.074Z,20.40
2019-04-10T15:22:35.807Z,19.00
2019-04-10T15:23:35.848Z,18.90
2019-04-10T15:24:42.714Z,20.30
2019-04-10T15:25:43.687Z,20.50
2019-04-10T15:26:42.550Z,18.70
2019-04-10T15:27:43.735Z,21.60
2019-04-10T15:28:42.046Z,20.70
2019-04-10T15:29:34.999Z,19.90
2019-04-10T15:30:36.873Z,18.90
2019-04-10T15:31:35.440Z,19.20
2019-04-10T15:32:35.844Z,19.80
2019-04-10T15:33:35.239Z,21.20
2019-04-10T15:34:35.393Z,19.60
2019-04-10T15:35:34.923Z,19.20
2019-04-10T15:36:35.898Z,21.60
2019-04-10T15:37:35.352Z,20.10
2019-04-10T15:38:35.780Z,22.30
2019-04-10T15:39:37.457Z,19.70
2019-04-10T15:40:34.875Z,23.30
2019-04-10T15:41:34.967Z,20.40
2019-04-10T15:42:34.956Z,21.80
2019-04-10T15:43:35.115Z,21.40
2019-04-10T15:44:34.822Z,22.10
2019-04-10T15:45:35.767Z,22.10
2019-04-10T15:46:35.301Z,22.30
2019-04-10T15:47:35.300Z,23.60
2019-04-10T15:48:35.624Z,22.70
2019-04-10T15:49:34.773Z,21.60
2019-04-10T15:50:34.834Z,21.70
2019-04-10T15:51:34.775Z,21.80
2019-04-10T15:52:35.446Z,21.60
2019-04-10T15:53:34.729Z,21.50
2019-04-10T15:54:34.728Z,22.40
2019-04-10T15:55:34.704Z,20.60
2019-04-10T15:56:34.693Z,21.30
2019-04-10T15:57:45.805Z,22.30
2019-04-10T15:58:35.674Z,20.90
2019-04-10T15:59:34.666Z,21.40
2019-04-10T16:00:34.967Z,20.80
2019-04-10T16:01:35.147Z,22.20
2019-04-10T16:02:34.639Z,21.60
2019-04-10T16:03:34.623Z,21.50
2019-04-10T16:04:35.789Z,21.50
2019-04-10T16:05:34.600Z,20.70
2019-04-10T16:06:35.539Z,22.30
2019-04-10T16:07:34.651Z,24.40
2019-04-10T16:08:34.569Z,22.40
2019-04-10T16:09:44.913Z,23.10
2019-04-10T16:10:35.541Z,24.40
2019-04-10T16:11:34.535Z,22.20
2019-04-10T16:12:35.231Z,21.40
2019-04-10T16:13:34.587Z,21.00
2019-04-10T16:14:34.501Z,21.90
2019-04-10T16:15:34.656Z,21.60
2019-04-10T16:16:34.509Z,22.20
2019-04-10T16:17:34.483Z,20.10
2019-04-10T16:18:34.691Z,20.60
2019-04-10T16:19:34.607Z,20.70
2019-04-10T16:20:34.439Z,19.70
2019-04-10T16:21:34.422Z,21.50
2019-04-10T16:22:35.291Z,21.00
2019-04-10T16:23:35.600Z,20.30
2019-04-10T16:24:34.401Z,23.00
2019-04-10T16:25:34.385Z,21.30
2019-04-10T16:26:35.595Z,20.90
2019-04-10T16:27:34.368Z,22.70
2019-04-10T16:28:35.474Z,21.20
2019-04-10T16:29:34.362Z,25.10
2019-04-10T16:30:34.938Z,23.70
2019-04-10T16:31:35.483Z,20.80
2019-04-10T16:32:34.905Z,22.60
2019-04-10T16:33:34.315Z,21.90
2019-04-10T16:34:34.524Z,21.10
2019-04-10T16:35:36.598Z,18.80
2019-04-10T16:36:35.218Z,20.30
2019-04-10T16:37:34.265Z,23.00
2019-04-10T16:38:34.276Z,19.60
2019-04-10T16:39:34.238Z,20.80
2019-04-10T16:40:34.224Z,22.00
2019-04-10T16:41:35.383Z,20.90
2019-04-10T16:42:34.820Z,21.00
2019-04-10T16:43:34.203Z,19.70
2019-04-10T16:44:35.238Z,19.30
2019-04-10T16:45:34.881Z,20.70
2019-04-10T16:46:34.166Z,19.80
2019-04-10T16:47:34.367Z,20.00
2019-04-10T16:48:34.137Z,20.20
2019-04-10T16:49:35.058Z,20.20
2019-04-10T16:50:34.246Z,20.70
2019-04-10T16:51:34.401Z,21.60
2019-04-10T16:52:34.094Z,22.80
2019-04-10T16:53:34.189Z,19.60
2019-04-10T16:54:34.087Z,20.40
2019-04-10T16:55:34.594Z,20.10
2019-04-10T16:56:34.050Z,19.40
2019-04-10T16:57:34.564Z,20.40